sensor_id;sensor_type;location;lat;lon;timestamp;P1;durP1;ratioP1;P2;durP2;ratioP2
65387;SDS011;51992;53.528;49.474;2024-01-11T00:00:27;12.32;;;11.02;;
65387;SDS011;51992;53.528;49.474;2024-01-11T00:02:52;17.35;;;15.55;;
65387;SDS011;51992;53.528;49.474;2024-01-11T00:05:18;12.63;;;11.32;;
65387;SDS011;51992;53.528;49.474;2024-01-11T00:07:44;22.15;;;19.95;;
65387;SDS011;51992;53.528;49.474;2024-01-11T00:10:09;17.77;;;15.90;;
65387;SDS011;51992;53.528;49.474;2024-01-11T00:12:35;9.10;;;7.63;;
65387;SDS011;51992;53.528;49.474;2024-01-11T00:15:01;7.03;;;5.63;;
65387;SDS011;51992;53.528;49.474;2024-01-11T00:17:27;7.65;;;6.30;;
65387;SDS011;51992;53.528;49.474;2024-01-11T00:19:52;8.82;;;6.53;;
65387;SDS011;51992;53.528;49.474;2024-01-11T00:22:21;8.35;;;6.47;;
65387;SDS011;51992;53.528;49.474;2024-01-11T00:24:47;7.90;;;6.13;;
65387;SDS011;51992;53.528;49.474;2024-01-11T00:27:13;9.95;;;6.47;;
65387;SDS011;51992;53.528;49.474;2024-01-11T00:29:38;9.80;;;8.63;;
65387;SDS011;51992;53.528;49.474;2024-01-11T00:32:04;13.70;;;12.25;;
65387;SDS011;51992;53.528;49.474;2024-01-11T00:34:30;14.73;;;12.48;;
65387;SDS011;51992;53.528;49.474;2024-01-11T00:36:56;14.32;;;12.80;;
65387;SDS011;51992;53.528;49.474;2024-01-11T00:39:22;10.23;;;7.95;;
65387;SDS011;51992;53.528;49.474;2024-01-11T00:41:48;7.80;;;5.38;;
65387;SDS011;51992;53.528;49.474;2024-01-11T00:44:14;7.32;;;5.28;;
65387;SDS011;51992;53.528;49.474;2024-01-11T00:46:40;6.75;;;5.90;;
65387;SDS011;51992;53.528;49.474;2024-01-11T00:49:06;7.88;;;6.78;;
65387;SDS011;51992;53.528;49.474;2024-01-11T00:51:32;5.65;;;4.35;;
65387;SDS011;51992;53.528;49.474;2024-01-11T00:53:58;5.88;;;4.20;;
65387;SDS011;51992;53.528;49.474;2024-01-11T00:56:24;6.13;;;4.60;;
65387;SDS011;51992;53.528;49.474;2024-01-11T00:58:50;8.68;;;6.82;;
65387;SDS011;51992;53.528;49.474;2024-01-11T01:01:16;10.63;;;9.50;;
65387;SDS011;51992;53.528;49.474;2024-01-11T01:03:42;19.73;;;17.73;;
65387;SDS011;51992;53.528;49.474;2024-01-11T01:06:08;6.47;;;5.68;;
65387;SDS011;51992;53.528;49.474;2024-01-11T01:08:34;7.55;;;5.40;;
65387;SDS011;51992;53.528;49.474;2024-01-11T01:11:00;10.73;;;6.57;;
65387;SDS011;51992;53.528;49.474;2024-01-11T01:13:26;8.70;;;5.78;;
65387;SDS011;51992;53.528;49.474;2024-01-11T01:15:51;9.10;;;7.25;;
65387;SDS011;51992;53.528;49.474;2024-01-11T01:18:17;9.75;;;6.80;;
65387;SDS011;51992;53.528;49.474;2024-01-11T01:20:43;8.25;;;7.07;;
65387;SDS011;51992;53.528;49.474;2024-01-11T01:23:09;7.68;;;4.95;;
65387;SDS011;51992;53.528;49.474;2024-01-11T01:25:35;12.10;;;9.93;;
65387;SDS011;51992;53.528;49.474;2024-01-11T01:28:01;18.75;;;16.85;;
65387;SDS011;51992;53.528;49.474;2024-01-11T01:30:27;18.77;;;17.00;;
65387;SDS011;51992;53.528;49.474;2024-01-11T01:32:53;13.32;;;12.02;;
65387;SDS011;51992;53.528;49.474;2024-01-11T01:35:19;14.65;;;13.30;;
65387;SDS011;51992;53.528;49.474;2024-01-11T01:37:45;10.95;;;9.85;;
65387;SDS011;51992;53.528;49.474;2024-01-11T01:40:11;9.52;;;8.27;;
65387;SDS011;51992;53.528;49.474;2024-01-11T01:42:41;18.55;;;16.75;;
65387;SDS011;51992;53.528;49.474;2024-01-11T01:45:07;14.80;;;13.27;;
65387;SDS011;51992;53.528;49.474;2024-01-11T01:47:33;13.07;;;11.10;;
65387;SDS011;51992;53.528;49.474;2024-01-11T01:49:59;11.98;;;10.77;;
65387;SDS011;51992;53.528;49.474;2024-01-11T01:52:25;14.15;;;11.80;;
65387;SDS011;51992;53.528;49.474;2024-01-11T01:54:51;12.40;;;11.00;;
65387;SDS011;51992;53.528;49.474;2024-01-11T01:57:16;6.93;;;5.43;;
65387;SDS011;51992;53.528;49.474;2024-01-11T01:59:44;5.95;;;3.45;;
65387;SDS011;51992;53.528;49.474;2024-01-11T02:02:11;3.97;;;3.13;;
65387;SDS011;51992;53.528;49.474;2024-01-11T02:04:37;3.67;;;3.15;;
65387;SDS011;51992;53.528;49.474;2024-01-11T02:07:03;5.78;;;4.50;;
65387;SDS011;51992;53.528;49.474;2024-01-11T02:09:29;5.63;;;3.78;;
65387;SDS011;51992;53.528;49.474;2024-01-11T02:11:55;6.60;;;4.68;;
65387;SDS011;51992;53.528;49.474;2024-01-11T02:14:21;8.13;;;5.93;;
65387;SDS011;51992;53.528;49.474;2024-01-11T02:16:47;9.02;;;7.07;;
65387;SDS011;51992;53.528;49.474;2024-01-11T02:19:13;16.25;;;11.60;;
65387;SDS011;51992;53.528;49.474;2024-01-11T02:21:42;16.40;;;12.60;;
65387;SDS011;51992;53.528;49.474;2024-01-11T02:24:08;11.25;;;8.35;;
65387;SDS011;51992;53.528;49.474;2024-01-11T02:26:35;8.60;;;6.28;;
65387;SDS011;51992;53.528;49.474;2024-01-11T02:29:00;7.45;;;5.38;;
65387;SDS011;51992;53.528;49.474;2024-01-11T02:31:26;32.72;;;22.30;;
65387;SDS011;51992;53.528;49.474;2024-01-11T02:33:52;127.95;;;75.38;;
65387;SDS011;51992;53.528;49.474;2024-01-11T02:36:22;55.05;;;33.08;;
65387;SDS011;51992;53.528;49.474;2024-01-11T02:38:53;32.22;;;20.27;;
65387;SDS011;51992;53.528;49.474;2024-01-11T02:41:19;27.17;;;17.40;;
65387;SDS011;51992;53.528;49.474;2024-01-11T02:43:46;19.52;;;14.85;;
65387;SDS011;51992;53.528;49.474;2024-01-11T02:46:12;25.65;;;22.95;;
65387;SDS011;51992;53.528;49.474;2024-01-11T02:48:39;15.88;;;14.23;;
65387;SDS011;51992;53.528;49.474;2024-01-11T02:51:05;7.47;;;5.47;;
65387;SDS011;51992;53.528;49.474;2024-01-11T02:53:31;7.05;;;5.10;;
65387;SDS011;51992;53.528;49.474;2024-01-11T02:56:00;5.40;;;3.80;;
65387;SDS011;51992;53.528;49.474;2024-01-11T02:58:26;4.15;;;3.63;;
65387;SDS011;51992;53.528;49.474;2024-01-11T03:00:52;3.95;;;3.22;;
65387;SDS011;51992;53.528;49.474;2024-01-11T03:03:18;6.65;;;5.18;;
65387;SDS011;51992;53.528;49.474;2024-01-11T03:05:44;8.93;;;7.82;;
65387;SDS011;51992;53.528;49.474;2024-01-11T03:08:10;12.05;;;10.85;;
65387;SDS011;51992;53.528;49.474;2024-01-11T03:10:39;11.23;;;9.27;;
65387;SDS011;51992;53.528;49.474;2024-01-11T03:13:06;12.02;;;10.80;;
65387;SDS011;51992;53.528;49.474;2024-01-11T03:15:33;11.00;;;8.38;;
65387;SDS011;51992;53.528;49.474;2024-01-11T03:17:59;11.45;;;6.57;;
65387;SDS011;51992;53.528;49.474;2024-01-11T03:20:25;6.72;;;5.03;;
65387;SDS011;51992;53.528;49.474;2024-01-11T03:22:51;9.05;;;7.47;;
65387;SDS011;51992;53.528;49.474;2024-01-11T03:25:18;13.13;;;10.82;;
65387;SDS011;51992;53.528;49.474;2024-01-11T03:27:44;11.80;;;10.23;;
65387;SDS011;51992;53.528;49.474;2024-01-11T03:30:10;11.88;;;8.40;;
65387;SDS011;51992;53.528;49.474;2024-01-11T03:32:36;9.45;;;6.97;;
65387;SDS011;51992;53.528;49.474;2024-01-11T03:35:02;10.45;;;4.20;;
65387;SDS011;51992;53.528;49.474;2024-01-11T03:37:28;5.07;;;3.83;;
65387;SDS011;51992;53.528;49.474;2024-01-11T03:39:53;4.45;;;3.35;;
65387;SDS011;51992;53.528;49.474;2024-01-11T03:42:19;6.25;;;5.15;;
65387;SDS011;51992;53.528;49.474;2024-01-11T03:44:45;11.70;;;10.13;;
65387;SDS011;51992;53.528;49.474;2024-01-11T03:47:10;12.00;;;10.25;;
65387;SDS011;51992;53.528;49.474;2024-01-11T03:49:36;14.20;;;11.70;;
65387;SDS011;51992;53.528;49.474;2024-01-11T03:52:02;6.72;;;6.13;;
65387;SDS011;51992;53.528;49.474;2024-01-11T03:54:28;10.60;;;8.65;;
65387;SDS011;51992;53.528;49.474;2024-01-11T03:56:55;5.07;;;3.97;;
65387;SDS011;51992;53.528;49.474;2024-01-11T03:59:21;4.75;;;3.67;;
65387;SDS011;51992;53.528;49.474;2024-01-11T04:01:47;5.40;;;4.20;;
65387;SDS011;51992;53.528;49.474;2024-01-11T04:04:13;6.10;;;5.00;;
65387;SDS011;51992;53.528;49.474;2024-01-11T04:06:39;9.65;;;7.15;;
65387;SDS011;51992;53.528;49.474;2024-01-11T04:09:04;9.15;;;6.38;;
65387;SDS011;51992;53.528;49.474;2024-01-11T04:11:30;8.32;;;5.18;;
65387;SDS011;51992;53.528;49.474;2024-01-11T04:14:02;7.78;;;4.93;;
65387;SDS011;51992;53.528;49.474;2024-01-11T04:16:34;7.85;;;4.40;;
65387;SDS011;51992;53.528;49.474;2024-01-11T04:19:04;8.93;;;3.93;;
65387;SDS011;51992;53.528;49.474;2024-01-11T04:21:30;7.13;;;5.03;;
65387;SDS011;51992;53.528;49.474;2024-01-11T04:23:56;6.93;;;5.97;;
65387;SDS011;51992;53.528;49.474;2024-01-11T04:26:22;18.40;;;16.50;;
65387;SDS011;51992;53.528;49.474;2024-01-11T04:28:49;18.05;;;12.82;;
65387;SDS011;51992;53.528;49.474;2024-01-11T04:31:15;16.85;;;11.30;;
65387;SDS011;51992;53.528;49.474;2024-01-11T04:33:43;8.45;;;6.45;;
65387;SDS011;51992;53.528;49.474;2024-01-11T04:36:09;9.20;;;7.32;;
65387;SDS011;51992;53.528;49.474;2024-01-11T04:38:35;12.15;;;10.80;;
65387;SDS011;51992;53.528;49.474;2024-01-11T04:41:07;8.25;;;4.35;;
65387;SDS011;51992;53.528;49.474;2024-01-11T04:43:33;7.28;;;5.03;;
65387;SDS011;51992;53.528;49.474;2024-01-11T04:45:59;4.70;;;3.70;;
65387;SDS011;51992;53.528;49.474;2024-01-11T04:48:24;4.57;;;3.03;;
65387;SDS011;51992;53.528;49.474;2024-01-11T04:50:50;4.45;;;3.40;;
65387;SDS011;51992;53.528;49.474;2024-01-11T04:53:16;5.88;;;3.42;;
65387;SDS011;51992;53.528;49.474;2024-01-11T04:55:42;5.00;;;3.53;;
65387;SDS011;51992;53.528;49.474;2024-01-11T04:58:08;4.13;;;3.60;;
65387;SDS011;51992;53.528;49.474;2024-01-11T05:00:34;5.20;;;3.97;;
65387;SDS011;51992;53.528;49.474;2024-01-11T05:03:00;7.10;;;5.13;;
65387;SDS011;51992;53.528;49.474;2024-01-11T05:05:26;7.57;;;5.53;;
65387;SDS011;51992;53.528;49.474;2024-01-11T05:07:52;8.18;;;5.20;;
65387;SDS011;51992;53.528;49.474;2024-01-11T05:10:18;8.13;;;5.85;;
65387;SDS011;51992;53.528;49.474;2024-01-11T05:12:44;8.00;;;5.43;;
65387;SDS011;51992;53.528;49.474;2024-01-11T05:15:10;8.52;;;5.90;;
65387;SDS011;51992;53.528;49.474;2024-01-11T05:17:36;6.15;;;4.40;;
65387;SDS011;51992;53.528;49.474;2024-01-11T05:20:03;5.97;;;3.70;;
65387;SDS011;51992;53.528;49.474;2024-01-11T05:22:29;2.58;;;1.88;;
65387;SDS011;51992;53.528;49.474;2024-01-11T05:24:55;4.30;;;3.17;;
65387;SDS011;51992;53.528;49.474;2024-01-11T05:27:21;4.57;;;3.40;;
65387;SDS011;51992;53.528;49.474;2024-01-11T05:29:47;17.77;;;7.65;;
65387;SDS011;51992;53.528;49.474;2024-01-11T05:32:13;7.53;;;3.92;;
65387;SDS011;51992;53.528;49.474;2024-01-11T05:34:40;5.15;;;4.00;;
65387;SDS011;51992;53.528;49.474;2024-01-11T05:37:06;4.50;;;3.20;;
65387;SDS011;51992;53.528;49.474;2024-01-11T05:39:32;4.43;;;3.30;;
65387;SDS011;51992;53.528;49.474;2024-01-11T05:41:58;5.20;;;3.67;;
65387;SDS011;51992;53.528;49.474;2024-01-11T05:44:24;12.73;;;6.75;;
65387;SDS011;51992;53.528;49.474;2024-01-11T05:46:50;8.88;;;6.00;;
65387;SDS011;51992;53.528;49.474;2024-01-11T05:49:15;8.00;;;5.47;;
65387;SDS011;51992;53.528;49.474;2024-01-11T05:51:41;7.53;;;4.35;;
65387;SDS011;51992;53.528;49.474;2024-01-11T05:54:07;9.93;;;5.78;;
65387;SDS011;51992;53.528;49.474;2024-01-11T05:56:37;9.85;;;4.82;;
65387;SDS011;51992;53.528;49.474;2024-01-11T05:59:02;12.00;;;6.32;;
65387;SDS011;51992;53.528;49.474;2024-01-11T06:01:28;8.93;;;5.50;;
65387;SDS011;51992;53.528;49.474;2024-01-11T06:03:54;7.72;;;4.45;;
65387;SDS011;51992;53.528;49.474;2024-01-11T06:06:20;5.68;;;3.80;;
65387;SDS011;51992;53.528;49.474;2024-01-11T06:08:46;14.18;;;10.18;;
65387;SDS011;51992;53.528;49.474;2024-01-11T06:11:14;12.00;;;8.48;;
65387;SDS011;51992;53.528;49.474;2024-01-11T06:13:40;7.82;;;5.43;;
65387;SDS011;51992;53.528;49.474;2024-01-11T06:16:06;8.20;;;6.38;;
65387;SDS011;51992;53.528;49.474;2024-01-11T06:18:33;29.13;;;18.88;;
65387;SDS011;51992;53.528;49.474;2024-01-11T06:20:59;38.97;;;27.05;;
65387;SDS011;51992;53.528;49.474;2024-01-11T06:23:25;29.40;;;20.40;;
65387;SDS011;51992;53.528;49.474;2024-01-11T06:25:51;17.42;;;12.35;;
65387;SDS011;51992;53.528;49.474;2024-01-11T06:28:17;9.18;;;6.00;;
65387;SDS011;51992;53.528;49.474;2024-01-11T06:30:43;5.30;;;3.10;;
65387;SDS011;51992;53.528;49.474;2024-01-11T06:33:09;7.63;;;3.83;;
65387;SDS011;51992;53.528;49.474;2024-01-11T06:35:35;4.93;;;3.63;;
65387;SDS011;51992;53.528;49.474;2024-01-11T06:38:01;6.72;;;3.92;;
65387;SDS011;51992;53.528;49.474;2024-01-11T06:40:28;5.60;;;3.70;;
65387;SDS011;51992;53.528;49.474;2024-01-11T06:42:54;6.97;;;4.35;;
65387;SDS011;51992;53.528;49.474;2024-01-11T06:45:20;6.10;;;4.10;;
65387;SDS011;51992;53.528;49.474;2024-01-11T06:47:46;4.20;;;3.28;;
65387;SDS011;51992;53.528;49.474;2024-01-11T06:50:12;7.43;;;5.13;;
65387;SDS011;51992;53.528;49.474;2024-01-11T06:52:38;5.68;;;4.05;;
65387;SDS011;51992;53.528;49.474;2024-01-11T06:55:05;5.15;;;3.10;;
65387;SDS011;51992;53.528;49.474;2024-01-11T06:57:31;3.38;;;2.58;;
65387;SDS011;51992;53.528;49.474;2024-01-11T06:59:57;5.13;;;2.92;;
65387;SDS011;51992;53.528;49.474;2024-01-11T07:02:23;3.90;;;3.35;;
65387;SDS011;51992;53.528;49.474;2024-01-11T07:04:49;4.97;;;3.80;;
65387;SDS011;51992;53.528;49.474;2024-01-11T07:07:15;5.25;;;3.50;;
65387;SDS011;51992;53.528;49.474;2024-01-11T07:09:41;5.05;;;4.13;;
65387;SDS011;51992;53.528;49.474;2024-01-11T07:12:07;3.75;;;2.78;;
65387;SDS011;51992;53.528;49.474;2024-01-11T07:14:33;4.85;;;3.90;;
65387;SDS011;51992;53.528;49.474;2024-01-11T07:16:59;5.55;;;3.70;;
65387;SDS011;51992;53.528;49.474;2024-01-11T07:19:25;6.25;;;3.50;;
65387;SDS011;51992;53.528;49.474;2024-01-11T07:21:52;6.03;;;4.32;;
65387;SDS011;51992;53.528;49.474;2024-01-11T07:24:44;7.03;;;5.00;;
65387;SDS011;51992;53.528;49.474;2024-01-11T07:27:16;5.88;;;4.53;;
65387;SDS011;51992;53.528;49.474;2024-01-11T07:29:43;5.30;;;3.75;;
65387;SDS011;51992;53.528;49.474;2024-01-11T07:32:09;5.88;;;3.38;;
65387;SDS011;51992;53.528;49.474;2024-01-11T07:34:37;4.15;;;3.28;;
65387;SDS011;51992;53.528;49.474;2024-01-11T07:37:04;5.75;;;4.10;;
65387;SDS011;51992;53.528;49.474;2024-01-11T07:39:30;8.20;;;3.78;;
65387;SDS011;51992;53.528;49.474;2024-01-11T07:41:56;8.43;;;4.30;;
65387;SDS011;51992;53.528;49.474;2024-01-11T07:44:23;8.90;;;6.25;;
65387;SDS011;51992;53.528;49.474;2024-01-11T07:46:49;2.90;;;2.20;;
65387;SDS011;51992;53.528;49.474;2024-01-11T07:49:15;2.13;;;1.92;;
65387;SDS011;51992;53.528;49.474;2024-01-11T07:51:41;4.28;;;2.65;;
65387;SDS011;51992;53.528;49.474;2024-01-11T07:54:12;4.95;;;2.53;;
65387;SDS011;51992;53.528;49.474;2024-01-11T07:56:38;3.75;;;2.97;;
65387;SDS011;51992;53.528;49.474;2024-01-11T07:59:04;5.07;;;4.45;;
65387;SDS011;51992;53.528;49.474;2024-01-11T08:01:30;7.07;;;4.80;;
65387;SDS011;51992;53.528;49.474;2024-01-11T08:03:56;6.00;;;4.78;;
65387;SDS011;51992;53.528;49.474;2024-01-11T08:06:22;7.90;;;5.22;;
65387;SDS011;51992;53.528;49.474;2024-01-11T08:08:48;2.83;;;2.30;;
65387;SDS011;51992;53.528;49.474;2024-01-11T08:11:17;2.53;;;2.13;;
65387;SDS011;51992;53.528;49.474;2024-01-11T08:13:44;3.67;;;2.55;;
65387;SDS011;51992;53.528;49.474;2024-01-11T08:16:16;2.60;;;2.40;;
65387;SDS011;51992;53.528;49.474;2024-01-11T08:18:43;7.47;;;4.65;;
65387;SDS011;51992;53.528;49.474;2024-01-11T08:21:09;2.58;;;2.22;;
65387;SDS011;51992;53.528;49.474;2024-01-11T08:23:44;4.15;;;3.22;;
65387;SDS011;51992;53.528;49.474;2024-01-11T08:26:25;3.22;;;2.65;;
65387;SDS011;51992;53.528;49.474;2024-01-11T08:28:51;2.75;;;2.50;;
65387;SDS011;51992;53.528;49.474;2024-01-11T08:31:17;4.47;;;3.10;;
65387;SDS011;51992;53.528;49.474;2024-01-11T08:33:43;6.28;;;3.08;;
65387;SDS011;51992;53.528;49.474;2024-01-11T08:36:08;4.38;;;3.08;;
65387;SDS011;51992;53.528;49.474;2024-01-11T08:38:35;4.05;;;2.70;;
65387;SDS011;51992;53.528;49.474;2024-01-11T08:41:01;4.75;;;2.63;;
65387;SDS011;51992;53.528;49.474;2024-01-11T08:43:28;4.10;;;2.33;;
65387;SDS011;51992;53.528;49.474;2024-01-11T08:45:54;5.32;;;2.78;;
65387;SDS011;51992;53.528;49.474;2024-01-11T08:48:20;4.95;;;2.50;;
65387;SDS011;51992;53.528;49.474;2024-01-11T08:50:46;3.28;;;2.58;;
65387;SDS011;51992;53.528;49.474;2024-01-11T08:53:12;3.38;;;2.33;;
65387;SDS011;51992;53.528;49.474;2024-01-11T08:55:38;3.05;;;1.75;;
65387;SDS011;51992;53.528;49.474;2024-01-11T08:58:03;5.05;;;3.35;;
65387;SDS011;51992;53.528;49.474;2024-01-11T09:00:29;2.95;;;2.05;;
65387;SDS011;51992;53.528;49.474;2024-01-11T09:02:55;3.35;;;2.60;;
65387;SDS011;51992;53.528;49.474;2024-01-11T09:05:21;5.25;;;3.05;;
65387;SDS011;51992;53.528;49.474;2024-01-11T09:07:49;3.92;;;2.70;;
65387;SDS011;51992;53.528;49.474;2024-01-11T09:10:15;5.90;;;3.58;;
65387;SDS011;51992;53.528;49.474;2024-01-11T09:12:41;4.82;;;3.47;;
65387;SDS011;51992;53.528;49.474;2024-01-11T09:15:07;3.78;;;2.70;;
65387;SDS011;51992;53.528;49.474;2024-01-11T09:17:33;4.53;;;2.83;;
65387;SDS011;51992;53.528;49.474;2024-01-11T09:19:59;4.93;;;3.28;;
65387;SDS011;51992;53.528;49.474;2024-01-11T09:22:25;6.20;;;3.00;;
65387;SDS011;51992;53.528;49.474;2024-01-11T09:24:51;4.10;;;3.25;;
65387;SDS011;51992;53.528;49.474;2024-01-11T09:27:18;3.97;;;3.13;;
65387;SDS011;51992;53.528;49.474;2024-01-11T09:29:44;5.07;;;3.42;;
65387;SDS011;51992;53.528;49.474;2024-01-11T09:32:10;4.70;;;3.15;;
65387;SDS011;51992;53.528;49.474;2024-01-11T09:34:36;6.00;;;3.33;;
65387;SDS011;51992;53.528;49.474;2024-01-11T09:37:02;6.88;;;3.25;;
65387;SDS011;51992;53.528;49.474;2024-01-11T09:39:29;6.05;;;3.17;;
65387;SDS011;51992;53.528;49.474;2024-01-11T09:42:02;3.70;;;3.10;;
65387;SDS011;51992;53.528;49.474;2024-01-11T09:44:31;4.15;;;3.05;;
65387;SDS011;51992;53.528;49.474;2024-01-11T09:47:00;3.88;;;2.72;;
65387;SDS011;51992;53.528;49.474;2024-01-11T09:49:27;5.15;;;3.55;;
65387;SDS011;51992;53.528;49.474;2024-01-11T09:51:54;6.00;;;3.83;;
65387;SDS011;51992;53.528;49.474;2024-01-11T09:54:22;4.95;;;3.67;;
65387;SDS011;51992;53.528;49.474;2024-01-11T09:56:50;5.60;;;3.50;;
65387;SDS011;51992;53.528;49.474;2024-01-11T09:59:18;5.35;;;3.30;;
65387;SDS011;51992;53.528;49.474;2024-01-11T10:01:45;4.03;;;2.80;;
65387;SDS011;51992;53.528;49.474;2024-01-11T10:04:11;3.00;;;2.70;;
65387;SDS011;51992;53.528;49.474;2024-01-11T10:06:38;5.22;;;3.20;;
65387;SDS011;51992;53.528;49.474;2024-01-11T10:09:04;3.50;;;3.13;;
65387;SDS011;51992;53.528;49.474;2024-01-11T10:11:30;3.70;;;3.17;;
65387;SDS011;51992;53.528;49.474;2024-01-11T10:13:57;10.40;;;3.70;;
65387;SDS011;51992;53.528;49.474;2024-01-11T10:16:23;3.60;;;2.75;;
65387;SDS011;51992;53.528;49.474;2024-01-11T10:18:51;6.57;;;4.32;;
65387;SDS011;51992;53.528;49.474;2024-01-11T10:21:18;10.55;;;6.93;;
65387;SDS011;51992;53.528;49.474;2024-01-11T10:23:44;10.43;;;3.92;;
65387;SDS011;51992;53.528;49.474;2024-01-11T10:26:10;3.88;;;3.20;;
65387;SDS011;51992;53.528;49.474;2024-01-11T10:28:36;5.75;;;3.78;;
65387;SDS011;51992;53.528;49.474;2024-01-11T10:31:03;11.70;;;3.83;;
65387;SDS011;51992;53.528;49.474;2024-01-11T10:33:29;4.22;;;3.33;;
65387;SDS011;51992;53.528;49.474;2024-01-11T10:35:55;4.65;;;3.60;;
65387;SDS011;51992;53.528;49.474;2024-01-11T10:38:21;6.43;;;3.90;;
65387;SDS011;51992;53.528;49.474;2024-01-11T10:40:48;4.80;;;3.70;;
65387;SDS011;51992;53.528;49.474;2024-01-11T10:43:14;4.53;;;3.53;;
65387;SDS011;51992;53.528;49.474;2024-01-11T10:45:41;5.50;;;3.33;;
65387;SDS011;51992;53.528;49.474;2024-01-11T10:48:15;3.88;;;3.13;;
65387;SDS011;51992;53.528;49.474;2024-01-11T10:50:48;3.85;;;3.22;;
65387;SDS011;51992;53.528;49.474;2024-01-11T10:55:41;3.33;;;2.78;;
65387;SDS011;51992;53.528;49.474;2024-01-11T10:58:07;5.65;;;3.53;;
65387;SDS011;51992;53.528;49.474;2024-01-11T11:00:36;5.75;;;3.28;;
65387;SDS011;51992;53.528;49.474;2024-01-11T11:03:04;3.65;;;3.35;;
65387;SDS011;51992;53.528;49.474;2024-01-11T11:05:32;7.15;;;3.70;;
65387;SDS011;51992;53.528;49.474;2024-01-11T11:08:01;4.85;;;2.83;;
65387;SDS011;51992;53.528;49.474;2024-01-11T11:10:28;5.93;;;3.15;;
65387;SDS011;51992;53.528;49.474;2024-01-11T11:12:54;8.63;;;3.22;;
65387;SDS011;51992;53.528;49.474;2024-01-11T11:15:22;4.45;;;3.28;;
65387;SDS011;51992;53.528;49.474;2024-01-11T11:17:50;4.85;;;3.25;;
65387;SDS011;51992;53.528;49.474;2024-01-11T11:20:18;3.97;;;3.13;;
65387;SDS011;51992;53.528;49.474;2024-01-11T11:22:48;3.97;;;2.85;;
65387;SDS011;51992;53.528;49.474;2024-01-11T11:25:26;4.07;;;3.10;;
65387;SDS011;51992;53.528;49.474;2024-01-11T11:27:53;3.95;;;3.22;;
65387;SDS011;51992;53.528;49.474;2024-01-11T11:30:19;3.22;;;2.90;;
65387;SDS011;51992;53.528;49.474;2024-01-11T11:32:45;6.35;;;2.90;;
65387;SDS011;51992;53.528;49.474;2024-01-11T11:35:11;3.10;;;2.60;;
65387;SDS011;51992;53.528;49.474;2024-01-11T11:37:38;7.22;;;2.78;;
65387;SDS011;51992;53.528;49.474;2024-01-11T11:40:09;6.00;;;3.17;;
65387;SDS011;51992;53.528;49.474;2024-01-11T11:42:39;4.95;;;2.95;;
65387;SDS011;51992;53.528;49.474;2024-01-11T11:45:06;9.13;;;2.72;;
65387;SDS011;51992;53.528;49.474;2024-01-11T11:47:33;12.65;;;4.47;;
65387;SDS011;51992;53.528;49.474;2024-01-11T11:50:03;6.32;;;3.80;;
65387;SDS011;51992;53.528;49.474;2024-01-11T11:52:33;2.58;;;2.38;;
65387;SDS011;51992;53.528;49.474;2024-01-11T11:55:01;4.10;;;2.92;;
65387;SDS011;51992;53.528;49.474;2024-01-11T11:57:27;9.60;;;5.43;;
65387;SDS011;51992;53.528;49.474;2024-01-11T11:59:54;6.97;;;2.72;;
65387;SDS011;51992;53.528;49.474;2024-01-11T12:02:21;6.93;;;3.08;;
65387;SDS011;51992;53.528;49.474;2024-01-11T12:04:48;6.85;;;2.90;;
65387;SDS011;51992;53.528;49.474;2024-01-11T12:07:14;3.55;;;2.60;;
65387;SDS011;51992;53.528;49.474;2024-01-11T12:09:41;7.45;;;3.17;;
65387;SDS011;51992;53.528;49.474;2024-01-11T12:12:07;4.18;;;2.72;;
65387;SDS011;51992;53.528;49.474;2024-01-11T12:14:34;3.90;;;2.63;;
65387;SDS011;51992;53.528;49.474;2024-01-11T12:16:59;5.03;;;2.58;;
65387;SDS011;51992;53.528;49.474;2024-01-11T12:19:25;3.75;;;2.80;;
65387;SDS011;51992;53.528;49.474;2024-01-11T12:21:51;5.22;;;2.53;;
65387;SDS011;51992;53.528;49.474;2024-01-11T12:24:17;3.70;;;2.20;;
65387;SDS011;51992;53.528;49.474;2024-01-11T12:26:43;3.42;;;2.58;;
65387;SDS011;51992;53.528;49.474;2024-01-11T12:29:09;4.40;;;2.70;;
65387;SDS011;51992;53.528;49.474;2024-01-11T12:31:35;2.92;;;2.60;;
65387;SDS011;51992;53.528;49.474;2024-01-11T12:34:01;7.22;;;2.05;;
65387;SDS011;51992;53.528;49.474;2024-01-11T12:36:30;5.03;;;2.72;;
65387;SDS011;51992;53.528;49.474;2024-01-11T12:38:56;2.50;;;2.30;;
65387;SDS011;51992;53.528;49.474;2024-01-11T12:41:24;5.25;;;2.60;;
65387;SDS011;51992;53.528;49.474;2024-01-11T12:43:50;3.20;;;2.53;;
65387;SDS011;51992;53.528;49.474;2024-01-11T12:46:15;4.28;;;2.00;;
65387;SDS011;51992;53.528;49.474;2024-01-11T12:48:42;3.72;;;2.20;;
65387;SDS011;51992;53.528;49.474;2024-01-11T12:51:08;4.57;;;2.42;;
65387;SDS011;51992;53.528;49.474;2024-01-11T12:53:35;2.53;;;2.17;;
65387;SDS011;51992;53.528;49.474;2024-01-11T12:56:07;3.53;;;2.60;;
65387;SDS011;51992;53.528;49.474;2024-01-11T12:58:37;3.05;;;2.30;;
65387;SDS011;51992;53.528;49.474;2024-01-11T13:01:06;2.78;;;2.10;;
65387;SDS011;51992;53.528;49.474;2024-01-11T13:03:35;3.80;;;2.13;;
65387;SDS011;51992;53.528;49.474;2024-01-11T13:06:01;3.40;;;2.17;;
65387;SDS011;51992;53.528;49.474;2024-01-11T13:08:27;6.97;;;2.05;;
65387;SDS011;51992;53.528;49.474;2024-01-11T13:10:54;2.60;;;2.10;;
65387;SDS011;51992;53.528;49.474;2024-01-11T13:13:20;2.80;;;1.85;;
65387;SDS011;51992;53.528;49.474;2024-01-11T13:15:46;2.70;;;1.98;;
65387;SDS011;51992;53.528;49.474;2024-01-11T13:18:11;1.90;;;1.67;;
65387;SDS011;51992;53.528;49.474;2024-01-11T13:20:37;3.10;;;1.80;;
65387;SDS011;51992;53.528;49.474;2024-01-11T13:23:19;1.58;;;1.48;;
65387;SDS011;51992;53.528;49.474;2024-01-11T13:25:46;2.10;;;1.40;;
65387;SDS011;51992;53.528;49.474;2024-01-11T13:28:12;2.38;;;1.77;;
65387;SDS011;51992;53.528;49.474;2024-01-11T13:30:42;2.33;;;2.13;;
65387;SDS011;51992;53.528;49.474;2024-01-11T13:33:09;1.50;;;1.40;;
65387;SDS011;51992;53.528;49.474;2024-01-11T13:35:38;1.70;;;1.60;;
65387;SDS011;51992;53.528;49.474;2024-01-11T13:38:05;2.70;;;1.88;;
65387;SDS011;51992;53.528;49.474;2024-01-11T13:40:31;2.08;;;1.63;;
65387;SDS011;51992;53.528;49.474;2024-01-11T13:42:57;1.33;;;1.23;;
65387;SDS011;51992;53.528;49.474;2024-01-11T13:45:26;1.67;;;1.58;;
65387;SDS011;51992;53.528;49.474;2024-01-11T13:47:52;1.95;;;1.50;;
65387;SDS011;51992;53.528;49.474;2024-01-11T13:50:24;2.45;;;1.58;;
65387;SDS011;51992;53.528;49.474;2024-01-11T13:52:50;2.90;;;2.10;;
65387;SDS011;51992;53.528;49.474;2024-01-11T13:55:16;2.60;;;2.35;;
65387;SDS011;51992;53.528;49.474;2024-01-11T13:57:51;1.63;;;1.52;;
65387;SDS011;51992;53.528;49.474;2024-01-11T14:00:18;2.22;;;2.10;;
65387;SDS011;51992;53.528;49.474;2024-01-11T14:02:44;1.88;;;1.73;;
65387;SDS011;51992;53.528;49.474;2024-01-11T14:05:11;2.67;;;2.22;;
65387;SDS011;51992;53.528;49.474;2024-01-11T14:07:39;2.72;;;1.42;;
65387;SDS011;51992;53.528;49.474;2024-01-11T14:10:05;3.72;;;1.80;;
65387;SDS011;51992;53.528;49.474;2024-01-11T14:12:32;2.42;;;1.90;;
65387;SDS011;51992;53.528;49.474;2024-01-11T14:14:57;2.92;;;2.05;;
65387;SDS011;51992;53.528;49.474;2024-01-11T14:17:23;3.30;;;2.22;;
65387;SDS011;51992;53.528;49.474;2024-01-11T14:19:49;2.40;;;2.08;;
65387;SDS011;51992;53.528;49.474;2024-01-11T14:22:15;3.17;;;2.00;;
65387;SDS011;51992;53.528;49.474;2024-01-11T14:24:40;3.15;;;2.10;;
65387;SDS011;51992;53.528;49.474;2024-01-11T14:27:06;3.08;;;1.70;;
65387;SDS011;51992;53.528;49.474;2024-01-11T14:29:32;2.65;;;2.17;;